Time;durP1;ratioP1;P1;durP2;ratioP2;P2;SDS_P1;SDS_P2;PMS_P1;PMS_P2;Temp;Humidity;BMP_temperature;BMP_pressure;BME280_temperature;BME280_humidity;BME280_pressure;Samples;Min_cycle;Max_cycle;Signal;HPM_P1;HPM_P2
2023/11/22 00:00:41;;;;;;;1.27;1.10;;;;;;;;;;10548030;28;20047;-74
2023/11/22 00:05:46;;;;;;;1.85;1.40;;;;;;;;;;10566678;28;20685;-74
2023/11/22 00:10:49;;;;;;;1.45;1.35;;;;;;;;;;10562504;28;20381;-74
2023/11/22 00:15:53;;;;;;;1.55;1.38;;;;;;;;;;10568185;28;20031;-74
2023/11/22 00:20:59;;;;;;;2.05;1.40;;;;;;;;;;10569334;28;20114;-74
2023/11/22 00:26:02;;;;;;;;;;;;;;;;;;10564006;28;20052;-74
2023/11/22 00:31:06;;;;;;;1.15;1.00;;;;;;;;;;10575041;28;19920;-74
2023/11/22 00:36:10;;;;;;;2.08;1.40;;;;;;;;;;10582430;28;20093;-74
2023/11/22 00:41:14;;;;;;;5.07;1.73;;;;;;;;;;10581638;28;20043;-74
2023/11/22 00:46:17;;;;;;;2.35;1.02;;;;;;;;;;10554556;27;20047;-74
2023/11/22 00:51:22;;;;;;;2.25;1.20;;;;;;;;;;10578400;28;20066;-74
2023/11/22 00:56:25;;;;;;;1.30;1.20;;;;;;;;;;10562313;28;20042;-74
2023/11/22 01:01:29;;;;;;;1.65;1.35;;;;;;;;;;10560334;28;20043;-74
2023/11/22 01:06:33;;;;;;;1.38;1.17;;;;;;;;;;10576158;28;20039;-74
2023/11/22 01:11:37;;;;;;;1.35;1.15;;;;;;;;;;10570028;28;20039;-74
2023/11/22 01:16:43;;;;;;;1.38;1.27;;;;;;;;;;10555301;28;20058;-74
2023/11/22 01:21:47;;;;;;;2.63;1.33;;;;;;;;;;10574114;28;20101;-74
2023/11/22 01:26:51;;;;;;;1.52;1.10;;;;;;;;;;10574749;28;20040;-74
2023/11/22 01:31:55;;;;;;;1.70;1.30;;;;;;;;;;10556011;28;20043;-74
2023/11/22 01:36:59;;;;;;;2.05;1.30;;;;;;;;;;10566996;28;20028;-74
2023/11/22 01:42:04;;;;;;;2.33;1.70;;;;;;;;;;10575975;28;20042;-74
2023/11/22 01:47:08;;;;;;;1.75;1.58;;;;;;;;;;10570983;28;20038;-74
2023/11/22 01:52:14;;;;;;;1.95;1.30;;;;;;;;;;10557941;28;20054;-74
2023/11/22 01:57:19;;;;;;;1.50;1.40;;;;;;;;;;10555726;28;20139;-74
2023/11/22 02:02:22;;;;;;;3.03;1.77;;;;;;;;;;10557420;28;20130;-74
2023/11/22 02:07:28;;;;;;;2.00;1.60;;;;;;;;;;10576675;28;20036;-74
2023/11/22 02:12:33;;;;;;;1.75;1.30;;;;;;;;;;10569501;28;20047;-74
2023/11/22 02:17:36;;;;;;;7.80;1.30;;;;;;;;;;10555690;28;20122;-74
2023/11/22 02:22:48;;;;;;;1.58;1.20;;;;;;;;;;10554115;28;20093;-74
2023/11/22 02:27:53;;;;;;;2.03;1.30;;;;;;;;;;10552992;28;20485;-74
2023/11/22 02:33:05;;;;;;;1.52;1.33;;;;;;;;;;10564552;28;20052;-74
2023/11/22 02:38:09;;;;;;;1.95;1.65;;;;;;;;;;10545649;28;20573;-74
2023/11/22 02:43:13;;;;;;;1.52;1.25;;;;;;;;;;10572069;28;20468;-74
2023/11/22 02:48:18;;;;;;;1.20;1.10;;;;;;;;;;10555028;28;20508;-74
2023/11/22 02:53:22;;;;;;;1.50;1.33;;;;;;;;;;10559053;28;20601;-74
2023/11/22 02:58:27;;;;;;;1.40;1.30;;;;;;;;;;10551442;28;20067;-74
2023/11/22 03:03:30;;;;;;;1.63;1.35;;;;;;;;;;10568181;28;20122;-74
2023/11/22 03:08:34;;;;;;;2.55;1.40;;;;;;;;;;10568767;28;20126;-74
2023/11/22 03:13:38;;;;;;;1.63;1.50;;;;;;;;;;10549704;28;20040;-74
2023/11/22 03:18:41;;;;;;;1.35;1.23;;;;;;;;;;10555048;28;20134;-74
2023/11/22 03:23:45;;;;;;;1.40;1.30;;;;;;;;;;10547700;28;20054;-74
2023/11/22 03:28:49;;;;;;;1.52;1.42;;;;;;;;;;10569021;28;20038;-74
2023/11/22 03:33:52;;;;;;;1.20;1.10;;;;;;;;;;10569135;28;20036;-74
2023/11/22 03:38:56;;;;;;;2.35;1.50;;;;;;;;;;10571519;28;20073;-74
2023/11/22 03:44:00;;;;;;;1.83;1.30;;;;;;;;;;10551168;28;20047;-74
2023/11/22 03:49:04;;;;;;;1.88;1.50;;;;;;;;;;10571752;28;20100;-74
2023/11/22 03:54:09;;;;;;;1.70;1.20;;;;;;;;;;10570054;28;20036;-74
2023/11/22 03:59:14;;;;;;;1.93;1.53;;;;;;;;;;10568548;28;20044;-74
2023/11/22 04:04:17;;;;;;;2.60;1.33;;;;;;;;;;10570340;28;20130;-74
2023/11/22 04:09:20;;;;;;;2.03;1.38;;;;;;;;;;10578818;28;20036;-74
2023/11/22 04:14:26;;;;;;;1.23;1.13;;;;;;;;;;10578886;28;20069;-74
2023/11/22 04:19:30;;;;;;;1.50;1.40;;;;;;;;;;10577857;28;20094;-74
2023/11/22 04:24:33;;;;;;;1.80;1.38;;;;;;;;;;10582896;28;20043;-74
2023/11/22 04:29:37;;;;;;;2.38;1.42;;;;;;;;;;10580608;28;20066;-74
2023/11/22 04:34:42;;;;;;;1.95;1.50;;;;;;;;;;10580947;28;20141;-74
2023/11/22 04:39:49;;;;;;;1.98;1.45;;;;;;;;;;10576171;27;20035;-74
2023/11/22 04:44:54;;;;;;;1.27;1.17;;;;;;;;;;10578037;28;20399;-74
2023/11/22 04:49:58;;;;;;;2.03;1.53;;;;;;;;;;10576563;28;20042;-74
2023/11/22 04:55:01;;;;;;;2.30;1.52;;;;;;;;;;10575883;28;20421;-74
2023/11/22 05:00:07;;;;;;;1.38;1.20;;;;;;;;;;10551002;28;20070;-74
2023/11/22 05:05:11;;;;;;;;;;;;;;;;;;10578792;28;20094;-74
2023/11/22 05:10:16;;;;;;;1.50;1.17;;;;;;;;;;10557364;28;19923;-74
2023/11/22 05:15:21;;;;;;;4.67;1.73;;;;;;;;;;10576705;28;20039;-74
2023/11/22 05:20:25;;;;;;;1.45;1.17;;;;;;;;;;10576385;27;20043;-74
2023/11/22 05:25:28;;;;;;;3.38;1.50;;;;;;;;;;10573971;28;20421;-74
2023/11/22 05:30:32;;;;;;;2.35;1.20;;;;;;;;;;10570514;28;20042;-74
2023/11/22 05:35:36;;;;;;;1.30;1.20;;;;;;;;;;10571687;28;20040;-74
2023/11/22 05:40:41;;;;;;;1.63;1.30;;;;;;;;;;10574488;28;20064;-73
2023/11/22 05:45:49;;;;;;;1.40;1.30;;;;;;;;;;10570718;28;20507;-74
2023/11/22 05:50:52;;;;;;;2.00;1.30;;;;;;;;;;10571395;28;20181;-74
2023/11/22 05:55:56;;;;;;;1.98;1.30;;;;;;;;;;10572927;28;20063;-73
2023/11/22 06:01:01;;;;;;;1.25;1.13;;;;;;;;;;10573516;28;20039;-74
2023/11/22 06:06:04;;;;;;;1.40;1.30;;;;;;;;;;10574020;28;20035;-74
2023/11/22 06:11:07;;;;;;;1.40;1.30;;;;;;;;;;10574792;28;20032;-74
2023/11/22 06:16:12;;;;;;;1.38;1.25;;;;;;;;;;10569938;28;20133;-74
2023/11/22 06:21:15;;;;;;;1.20;1.10;;;;;;;;;;10573753;28;20047;-74
2023/11/22 06:26:19;;;;;;;1.17;1.08;;;;;;;;;;10569175;28;20040;-74
2023/11/22 06:31:24;;;;;;;2.65;1.55;;;;;;;;;;10571740;27;20052;-74
2023/11/22 06:36:27;;;;;;;1.70;1.40;;;;;;;;;;10566477;28;20050;-74
2023/11/22 06:41:31;;;;;;;3.30;1.55;;;;;;;;;;10572821;27;20035;-74
2023/11/22 06:46:35;;;;;;;2.50;1.80;;;;;;;;;;10578999;27;20082;-74
2023/11/22 06:51:39;;;;;;;2.65;1.83;;;;;;;;;;10557861;28;20527;-74
2023/11/22 06:56:42;;;;;;;3.25;1.58;;;;;;;;;;10575470;28;20762;-74
2023/11/22 07:01:47;;;;;;;2.95;2.00;;;;;;;;;;10567546;28;20042;-74
2023/11/22 07:06:50;;;;;;;2.67;2.17;;;;;;;;;;10567688;28;20039;-73
2023/11/22 07:11:54;;;;;;;3.15;1.83;;;;;;;;;;10574380;28;20128;-73
2023/11/22 07:16:59;;;;;;;2.50;2.05;;;;;;;;;;10569904;28;20039;-74
2023/11/22 07:22:04;;;;;;;4.10;2.10;;;;;;;;;;10574411;28;20036;-73
2023/11/22 07:27:07;;;;;;;2.35;1.92;;;;;;;;;;10576552;27;20063;-74
2023/11/22 07:32:15;;;;;;;2.35;1.85;;;;;;;;;;10551673;28;20412;-74
2023/11/22 07:37:18;;;;;;;2.85;2.45;;;;;;;;;;10574930;28;20051;-73
2023/11/22 07:42:22;;;;;;;2.50;2.10;;;;;;;;;;10573728;28;20554;-74
2023/11/22 07:47:26;;;;;;;2.70;2.13;;;;;;;;;;10564685;28;20043;-73
2023/11/22 07:52:30;;;;;;;8.48;5.15;;;;;;;;;;10573582;28;20532;-74
2023/11/22 07:57:33;;;;;;;8.10;4.50;;;;;;;;;;10573886;28;20035;-74
2023/11/22 08:02:38;;;;;;;5.70;3.47;;;;;;;;;;10576677;28;20043;-74
2023/11/22 08:07:44;;;;;;;4.05;3.00;;;;;;;;;;10576905;28;21342;-74
2023/11/22 08:12:49;;;;;;;4.25;2.75;;;;;;;;;;10576562;28;20071;-74
2023/11/22 08:17:55;;;;;;;2.45;1.70;;;;;;;;;;10573534;28;20101;-74
2023/11/22 08:22:58;;;;;;;2.53;1.70;;;;;;;;;;10567023;28;20047;-74
2023/11/22 08:28:01;;;;;;;2.97;1.52;;;;;;;;;;10574514;28;20035;-74
2023/11/22 08:33:06;;;;;;;1.92;1.35;;;;;;;;;;10573925;28;20042;-74
2023/11/22 08:38:10;;;;;;;2.17;1.50;;;;;;;;;;10572974;28;20474;-74
2023/11/22 08:43:13;;;;;;;2.58;1.60;;;;;;;;;;10564893;28;20047;-74
2023/11/22 08:48:18;;;;;;;2.70;1.90;;;;;;;;;;10567854;28;20054;-74
2023/11/22 08:53:21;;;;;;;2.65;1.83;;;;;;;;;;10578247;28;20104;-74
2023/11/22 08:58:25;;;;;;;3.38;2.35;;;;;;;;;;10577458;28;20492;-74
2023/11/22 09:03:30;;;;;;;2.40;1.83;;;;;;;;;;10559488;28;20043;-73
2023/11/22 09:08:33;;;;;;;5.22;2.78;;;;;;;;;;10567174;28;20036;-74
2023/11/22 09:13:36;;;;;;;5.57;2.95;;;;;;;;;;10569860;28;20074;-74
2023/11/22 09:18:41;;;;;;;3.38;2.30;;;;;;;;;;10579257;28;20092;-74
2023/11/22 09:23:45;;;;;;;4.30;2.38;;;;;;;;;;10571235;28;20443;-74
2023/11/22 09:28:48;;;;;;;4.22;2.80;;;;;;;;;;10573229;28;20137;-74
2023/11/22 09:33:52;;;;;;;3.20;2.15;;;;;;;;;;10559907;28;20044;-74
2023/11/22 09:38:56;;;;;;;3.88;2.40;;;;;;;;;;10572411;28;20055;-74
2023/11/22 09:43:59;;;;;;;4.28;2.55;;;;;;;;;;10567686;27;20040;-74
2023/11/22 09:49:09;;;;;;;3.70;2.45;;;;;;;;;;10568254;28;20036;-74
2023/11/22 09:54:14;;;;;;;4.07;2.70;;;;;;;;;;10558325;28;20050;-74
2023/11/22 09:59:19;;;;;;;3.10;2.30;;;;;;;;;;10550193;22;20672;-75
2023/11/22 10:04:24;;;;;;;4.00;2.40;;;;;;;;;;10513905;28;20465;-75
2023/11/22 10:09:29;;;;;;;2.67;2.37;;;;;;;;;;10508543;28;20036;-75
2023/11/22 10:14:34;;;;;;;2.78;2.03;;;;;;;;;;10532808;28;20121;-75
2023/11/22 10:19:40;;;;;;;2.95;2.00;;;;;;;;;;10533655;28;20547;-75
2023/11/22 10:24:46;;;;;;;3.72;2.25;;;;;;;;;;10533326;28;20059;-75
2023/11/22 10:29:50;;;;;;;;;;;;;;;;;;10536184;28;20527;-75
2023/11/22 10:34:56;;;;;;;3.33;2.00;;;;;;;;;;10534189;28;19924;-75
2023/11/22 10:39:59;;;;;;;3.63;2.37;;;;;;;;;;10532175;28;20039;-75
2023/11/22 10:45:07;;;;;;;3.38;2.20;;;;;;;;;;10530923;28;20052;-75
2023/11/22 10:50:12;;;;;;;2.97;2.10;;;;;;;;;;10539477;28;20043;-75
2023/11/22 10:55:17;;;;;;;3.08;1.77;;;;;;;;;;10535648;28;20040;-75
2023/11/22 11:00:22;;;;;;;3.33;2.35;;;;;;;;;;10533735;28;20036;-75
2023/11/22 11:05:31;;;;;;;3.30;2.17;;;;;;;;;;10532745;28;20051;-75
2023/11/22 11:10:35;;;;;;;3.05;1.90;;;;;;;;;;10530593;28;20539;-75
2023/11/22 11:15:40;;;;;;;3.33;2.40;;;;;;;;;;10511184;28;20770;-75
2023/11/22 11:20:50;;;;;;;2.58;2.10;;;;;;;;;;10531360;28;20191;-75
2023/11/22 11:25:55;;;;;;;3.03;2.25;;;;;;;;;;10530693;28;20064;-74
2023/11/22 11:30:59;;;;;;;2.83;1.90;;;;;;;;;;10530018;28;20047;-74
2023/11/22 11:36:04;;;;;;;2.72;2.03;;;;;;;;;;10537622;28;20515;-74
2023/11/22 11:41:10;;;;;;;5.25;2.33;;;;;;;;;;10526674;28;20032;-74
2023/11/22 11:46:15;;;;;;;4.00;2.30;;;;;;;;;;10528505;28;20055;-74
2023/11/22 11:51:22;;;;;;;2.55;1.90;;;;;;;;;;10529748;28;20407;-74
2023/11/22 11:56:28;;;;;;;3.53;1.92;;;;;;;;;;10529449;28;20514;-74
2023/11/22 12:01:32;;;;;;;;;;;;;;;;;;10531579;28;20453;-74
2023/11/22 12:06:38;;;;;;;2.67;1.73;;;;;;;;;;10507761;28;19927;-74
2023/11/22 12:11:43;;;;;;;2.03;1.40;;;;;;;;;;10530185;28;20511;-74
2023/11/22 12:16:48;;;;;;;2.70;1.45;;;;;;;;;;10530289;28;20658;-74
2023/11/22 12:21:53;;;;;;;2.25;1.50;;;;;;;;;;10529907;28;20066;-74
2023/11/22 12:26:57;;;;;;;2.33;1.85;;;;;;;;;;10514095;28;20048;-74
2023/11/22 12:32:01;;;;;;;2.33;1.63;;;;;;;;;;10533938;28;20040;-74
2023/11/22 12:37:06;;;;;;;2.53;1.73;;;;;;;;;;10519534;28;20132;-74
2023/11/22 12:42:09;;;;;;;2.27;1.53;;;;;;;;;;10536594;28;20585;-73
2023/11/22 12:47:13;;;;;;;3.45;1.77;;;;;;;;;;10534055;28;20300;-73
2023/11/22 12:52:17;;;;;;;1.98;1.45;;;;;;;;;;10543870;28;20040;-74
2023/11/22 12:57:22;;;;;;;2.65;1.70;;;;;;;;;;10540314;28;20048;-74
2023/11/22 13:02:25;;;;;;;2.10;1.50;;;;;;;;;;10536636;28;20047;-73
2023/11/22 13:07:30;;;;;;;1.95;1.60;;;;;;;;;;10543618;28;20036;-74
2023/11/22 13:12:34;;;;;;;2.00;1.75;;;;;;;;;;10536119;28;20121;-74
2023/11/22 13:17:37;;;;;;;3.40;1.50;;;;;;;;;;10536597;28;20111;-74
2023/11/22 13:22:42;;;;;;;1.60;1.40;;;;;;;;;;10531884;28;20447;-74
2023/11/22 13:27:46;;;;;;;2.50;2.00;;;;;;;;;;10539336;28;20493;-74
2023/11/22 13:32:50;;;;;;;2.60;1.90;;;;;;;;;;10536158;28;20046;-74
2023/11/22 13:37:55;;;;;;;1.73;1.40;;;;;;;;;;10543730;28;20072;-74
2023/11/22 13:42:59;;;;;;;2.10;1.40;;;;;;;;;;10536701;28;20040;-74
2023/11/22 13:48:04;;;;;;;2.67;1.70;;;;;;;;;;10517939;28;20093;-74
2023/11/22 13:53:10;;;;;;;1.70;1.20;;;;;;;;;;10534255;28;20386;-74
2023/11/22 13:58:14;;;;;;;1.95;1.60;;;;;;;;;;10535120;28;20341;-74
2023/11/22 14:03:17;;;;;;;1.77;1.38;;;;;;;;;;10536115;28;20036;-74
2023/11/22 14:08:22;;;;;;;4.35;1.70;;;;;;;;;;10537683;28;20044;-74
2023/11/22 14:13:25;;;;;;;3.28;1.98;;;;;;;;;;10535143;28;20054;-73
2023/11/22 14:18:28;;;;;;;2.67;1.77;;;;;;;;;;10535454;28;20067;-74
2023/11/22 14:23:33;;;;;;;3.03;1.80;;;;;;;;;;10538239;28;20472;-73
2023/11/22 14:28:37;;;;;;;2.13;1.45;;;;;;;;;;10534816;28;20051;-74
2023/11/22 14:33:40;;;;;;;1.65;1.50;;;;;;;;;;10534770;28;20036;-74
2023/11/22 14:38:47;;;;;;;1.50;1.30;;;;;;;;;;10535523;28;20499;-73
2023/11/22 14:43:50;;;;;;;1.17;1.02;;;;;;;;;;10537714;28;20068;-73
2023/11/22 14:48:54;;;;;;;2.08;1.20;;;;;;;;;;10536426;28;20044;-73
2023/11/22 14:53:58;;;;;;;7.15;1.30;;;;;;;;;;10534915;28;20116;-74
2023/11/22 14:59:02;;;;;;;1.50;1.13;;;;;;;;;;10534528;28;20082;-74
2023/11/22 15:04:05;;;;;;;2.28;1.48;;;;;;;;;;10534937;28;20126;-74
2023/11/22 15:09:12;;;;;;;2.88;1.70;;;;;;;;;;10534304;28;20055;-74
2023/11/22 15:14:16;;;;;;;2.13;1.50;;;;;;;;;;10488040;28;20116;-74
2023/11/22 15:19:21;;;;;;;2.10;1.50;;;;;;;;;;10470928;28;20083;-74
2023/11/22 15:24:26;;;;;;;3.17;2.03;;;;;;;;;;10466806;28;20600;-74
2023/11/22 15:29:31;;;;;;;1.95;1.40;;;;;;;;;;10489306;28;20068;-73
2023/11/22 15:34:35;;;;;;;1.90;1.50;;;;;;;;;;10488771;28;20116;-73
2023/11/22 15:39:39;;;;;;;1.73;1.20;;;;;;;;;;10489412;28;20508;-73
2023/11/22 15:44:43;;;;;;;2.17;1.20;;;;;;;;;;10481340;28;20044;-73
2023/11/22 15:49:46;;;;;;;1.85;1.20;;;;;;;;;;10488232;28;20045;-74
2023/11/22 15:54:51;;;;;;;4.57;2.60;;;;;;;;;;10497582;22;20041;-73
2023/11/22 15:59:57;;;;;;;3.33;2.20;;;;;;;;;;10502680;28;20699;-74
2023/11/22 16:05:01;;;;;;;3.22;1.80;;;;;;;;;;10507479;28;20044;-73
2023/11/22 16:10:08;;;;;;;2.50;1.90;;;;;;;;;;10546326;28;20093;-74
2023/11/22 16:15:12;;;;;;;3.15;1.90;;;;;;;;;;10536755;28;20045;-75
2023/11/22 16:20:15;;;;;;;2.65;1.70;;;;;;;;;;10539021;28;20404;-74
2023/11/22 16:25:23;;;;;;;9.05;4.53;;;;;;;;;;10525211;28;20074;-72
2023/11/22 16:30:26;;;;;;;12.73;6.60;;;;;;;;;;10537140;28;20052;-75
2023/11/22 16:35:29;;;;;;;6.25;3.58;;;;;;;;;;10519308;28;20036;-74
2023/11/22 16:40:34;;;;;;;5.82;2.78;;;;;;;;;;10532853;28;20128;-72
2023/11/22 16:45:37;;;;;;;4.10;3.05;;;;;;;;;;10530653;28;20040;-73
2023/11/22 16:50:41;;;;;;;8.30;3.90;;;;;;;;;;10543416;28;20568;-72
2023/11/22 16:55:46;;;;;;;6.53;3.50;;;;;;;;;;10519039;28;20040;-72
2023/11/22 17:00:50;;;;;;;12.93;4.30;;;;;;;;;;10540611;28;20048;-74
2023/11/22 17:05:54;;;;;;;8.13;4.57;;;;;;;;;;10544032;28;20036;-74
2023/11/22 17:10:58;;;;;;;8.00;4.00;;;;;;;;;;10549780;28;20622;-74
2023/11/22 17:16:02;;;;;;;7.07;3.33;;;;;;;;;;10556706;28;20039;-74
2023/11/22 17:21:06;;;;;;;4.78;3.08;;;;;;;;;;10542188;28;20056;-74
2023/11/22 17:26:11;;;;;;;6.45;3.33;;;;;;;;;;10537398;28;20062;-74
2023/11/22 17:31:15;;;;;;;5.00;3.67;;;;;;;;;;10513222;28;20086;-74
2023/11/22 17:36:18;;;;;;;5.18;3.58;;;;;;;;;;10537097;28;20040;-74
2023/11/22 17:41:23;;;;;;;5.53;3.63;;;;;;;;;;10529556;28;20119;-74
2023/11/22 17:46:29;;;;;;;4.47;2.95;;;;;;;;;;10544368;28;20118;-74
2023/11/22 17:51:32;;;;;;;6.32;2.88;;;;;;;;;;10542983;28;20047;-75
2023/11/22 17:56:37;;;;;;;3.58;2.67;;;;;;;;;;10526048;28;20484;-74
2023/11/22 18:01:40;;;;;;;5.35;3.28;;;;;;;;;;10539657;28;20078;-74
2023/11/22 18:06:44;;;;;;;5.55;3.10;;;;;;;;;;10549202;28;20086;-74
2023/11/22 18:11:48;;;;;;;6.13;2.90;;;;;;;;;;10545079;28;20035;-74
2023/11/22 18:16:52;;;;;;;3.45;2.55;;;;;;;;;;10540312;28;20468;-74
2023/11/22 18:21:55;;;;;;;4.40;2.50;;;;;;;;;;10537687;28;20123;-74
2023/11/22 18:27:00;;;;;;;5.82;2.70;;;;;;;;;;10530776;28;20071;-74
2023/11/22 18:32:04;;;;;;;3.45;2.08;;;;;;;;;;10531530;28;20469;-74
2023/11/22 18:37:07;;;;;;;2.60;2.13;;;;;;;;;;10529491;28;20050;-74
2023/11/22 18:42:12;;;;;;;4.90;2.50;;;;;;;;;;10535029;28;20178;-75
2023/11/22 18:47:16;;;;;;;3.97;2.63;;;;;;;;;;10514110;28;20040;-74
2023/11/22 18:52:20;;;;;;;4.18;2.60;;;;;;;;;;10527935;28;20385;-74
2023/11/22 18:57:25;;;;;;;4.90;3.03;;;;;;;;;;10536239;28;20122;-74
2023/11/22 19:02:29;;;;;;;5.75;3.10;;;;;;;;;;10529205;28;20111;-74
2023/11/22 19:07:32;;;;;;;3.72;2.38;;;;;;;;;;10510501;28;20044;-74
2023/11/22 19:12:37;;;;;;;3.33;2.30;;;;;;;;;;10530232;28;20043;-74
2023/11/22 19:17:40;;;;;;;4.95;2.67;;;;;;;;;;10531066;28;20040;-74
2023/11/22 19:22:44;;;;;;;4.35;2.58;;;;;;;;;;10511823;28;20048;-74
2023/11/22 19:27:48;;;;;;;5.15;3.10;;;;;;;;;;10531491;28;20039;-74
2023/11/22 19:32:52;;;;;;;5.00;3.22;;;;;;;;;;10532220;28;20042;-74
2023/11/22 19:37:56;;;;;;;3.80;3.05;;;;;;;;;;10527780;28;20079;-74
2023/11/22 19:43:02;;;;;;;4.28;3.38;;;;;;;;;;10528078;28;20521;-74
2023/11/22 19:48:08;;;;;;;4.60;3.05;;;;;;;;;;10528253;28;20513;-74
2023/11/22 19:53:11;;;;;;;4.53;2.97;;;;;;;;;;10522837;28;20101;-74
2023/11/22 19:58:16;;;;;;;2.95;2.33;;;;;;;;;;10530795;28;20043;-74
2023/11/22 20:03:19;;;;;;;3.78;2.80;;;;;;;;;;10530848;28;20033;-74
2023/11/22 20:08:22;;;;;;;6.10;3.17;;;;;;;;;;10531025;28;20075;-74
2023/11/22 20:13:27;;;;;;;6.45;3.28;;;;;;;;;;10532340;28;20028;-74
2023/11/22 20:18:30;;;;;;;4.45;2.60;;;;;;;;;;10528736;28;20127;-75
2023/11/22 20:23:33;;;;;;;4.22;3.05;;;;;;;;;;10544408;28;20060;-74
2023/11/22 20:28:39;;;;;;;3.70;2.67;;;;;;;;;;10549814;28;20485;-74
2023/11/22 20:33:42;;;;;;;4.03;2.70;;;;;;;;;;10551845;28;20040;-74
2023/11/22 20:38:49;;;;;;;4.97;2.85;;;;;;;;;;10538557;28;20106;-74
2023/11/22 20:43:54;;;;;;;6.07;2.75;;;;;;;;;;10544069;28;20081;-74
2023/11/22 20:48:59;;;;;;;3.70;2.70;;;;;;;;;;10544627;28;20032;-74
2023/11/22 20:54:03;;;;;;;4.90;3.33;;;;;;;;;;10548033;28;20047;-74
2023/11/22 20:59:07;;;;;;;4.18;3.10;;;;;;;;;;10540404;28;20552;-74
2023/11/22 21:04:12;;;;;;;3.60;2.65;;;;;;;;;;10536035;28;20084;-74
2023/11/22 21:09:15;;;;;;;5.05;3.42;;;;;;;;;;10534874;28;20059;-74
2023/11/22 21:14:20;;;;;;;3.03;2.00;;;;;;;;;;10538841;28;20040;-74
2023/11/22 21:19:23;;;;;;;5.00;2.42;;;;;;;;;;10532392;28;20039;-74
2023/11/22 21:24:26;;;;;;;4.03;2.72;;;;;;;;;;10537251;28;20067;-74
2023/11/22 21:29:31;;;;;;;3.85;2.53;;;;;;;;;;10549227;28;20495;-74
2023/11/22 21:34:35;;;;;;;4.43;2.83;;;;;;;;;;10545858;28;20119;-74
2023/11/22 21:39:40;;;;;;;4.47;3.03;;;;;;;;;;10537106;28;20524;-74
2023/11/22 21:44:44;;;;;;;4.07;2.60;;;;;;;;;;10533639;28;20047;-74
2023/11/22 21:49:48;;;;;;;3.38;2.58;;;;;;;;;;10532386;28;20158;-74
2023/11/22 21:54:53;;;;;;;3.75;2.53;;;;;;;;;;10550210;22;20075;-73
2023/11/22 21:59:59;;;;;;;5.10;2.20;;;;;;;;;;10512935;28;20066;-73
2023/11/22 22:05:07;;;;;;;5.07;2.75;;;;;;;;;;10495393;28;20385;-73
2023/11/22 22:10:10;;;;;;;3.65;2.50;;;;;;;;;;10494619;28;20051;-73
2023/11/22 22:15:15;;;;;;;5.95;3.50;;;;;;;;;;10503946;28;20513;-73
2023/11/22 22:20:20;;;;;;;4.63;2.85;;;;;;;;;;10508361;28;20036;-73
2023/11/22 22:25:23;;;;;;;5.10;2.45;;;;;;;;;;10506766;28;20036;-73
2023/11/22 22:30:28;;;;;;;3.70;2.42;;;;;;;;;;10499380;28;20052;-73
2023/11/22 22:35:32;;;;;;;2.75;2.17;;;;;;;;;;10518045;28;20543;-73
2023/11/22 22:40:35;;;;;;;3.15;2.28;;;;;;;;;;10505491;28;20037;-73
2023/11/22 22:45:40;;;;;;;4.07;2.35;;;;;;;;;;10508452;28;20444;-73
2023/11/22 22:50:43;;;;;;;2.83;2.03;;;;;;;;;;10513517;28;20043;-73
2023/11/22 22:55:47;;;;;;;2.72;1.80;;;;;;;;;;10509506;28;20107;-73
2023/11/22 23:00:52;;;;;;;3.80;1.80;;;;;;;;;;10506451;28;20086;-73
2023/11/22 23:05:55;;;;;;;2.20;1.55;;;;;;;;;;10508769;28;20378;-73
2023/11/22 23:10:58;;;;;;;2.88;1.80;;;;;;;;;;10515781;28;20051;-73
2023/11/22 23:16:03;;;;;;;2.83;1.83;;;;;;;;;;10505761;28;20058;-73
2023/11/22 23:21:06;;;;;;;3.15;1.90;;;;;;;;;;10520335;28;20123;-73
2023/11/22 23:26:10;;;;;;;2.90;2.25;;;;;;;;;;10519372;28;20477;-73
2023/11/22 23:31:14;;;;;;;3.97;2.55;;;;;;;;;;10512716;28;20051;-73
2023/11/22 23:36:19;;;;;;;3.53;2.50;;;;;;;;;;10514529;28;20052;-73
2023/11/22 23:41:25;;;;;;;2.42;1.90;;;;;;;;;;10505677;28;20055;-73
2023/11/22 23:46:32;;;;;;;3.97;1.70;;;;;;;;;;10518928;28;20111;-73
2023/11/22 23:51:35;;;;;;;3.95;2.00;;;;;;;;;;10505171;28;20042;-73
2023/11/22 23:56:39;;;;;;;2.08;1.70;;;;;;;;;;10523031;28;20132;-73
